Grange Hill, United Kingdom
Current Conditions -  °F | °C
As of 9:50 AM on Monday 22 Dec 2014 (Local Time) from EGLC Reporting Station
Broken Clouds Broken Clouds  
Wind Chill: 57°   Ceiling: 3000
Heat Index: 57°   Visibility: 6mi
Dew Point: 46°   Wind: 24mph
Humidity: 67%   Direction: 250°WSW
Pressure: 30.06"   Gusts: 46mph
Location:  51.61°N, 0.09°E
Report Text: EGLC 220950Z 25021G40KT 9999 SCT024 BKN030 14/08 Q1018
Loading
Personal Weather Stations






























Interactive Weather Map New forecast layout! Learn more

10-Day Weather Forecast

Advertisements
Track Severe Weather on mobile